Time;durP1;ratioP1;P1;durP2;ratioP2;P2;SDS_P1;SDS_P2;PMS_P1;PMS_P2;Temp;Humidity;BMP_temperature;BMP_pressure;BME280_temperature;BME280_humidity;BME280_pressure;Samples;Min_cycle;Max_cycle;Signal;HPM_P1;HPM_P2
2023/06/12 00:01:07;;;;;;;9.73;5.03;;;18.60;92.50;;;19.34;80.69;97971.38;5024064;28;20466;-83
2023/06/12 00:03:36;;;;;;;15.80;4.70;;;18.60;92.60;;;19.28;81.01;97973.16;5024959;28;21150;-83
2023/06/12 00:06:05;;;;;;;9.00;4.60;;;18.60;92.70;;;19.27;81.15;97978.69;5027729;28;21023;-84
2023/06/12 00:08:35;;;;;;;6.50;3.97;;;18.50;92.90;;;19.21;81.24;97979.69;5027466;28;20462;-83
2023/06/12 00:11:09;;;;;;;6.37;4.60;;;18.50;92.70;;;19.16;81.66;97980.41;5024466;28;20478;-83
2023/06/12 00:13:40;;;;;;;6.60;4.80;;;18.40;93.10;;;19.13;81.51;97986.19;5028516;28;20469;-83
2023/06/12 00:16:10;;;;;;;8.10;4.60;;;18.40;92.90;;;19.08;81.54;97991.44;5026156;28;20874;-83
2023/06/12 00:18:39;;;;;;;8.13;5.03;;;18.40;92.80;;;19.03;81.73;97989.50;5026922;28;21191;-83
2023/06/12 00:21:09;;;;;;;7.03;4.50;;;18.40;92.80;;;18.96;82.46;97990.69;5026101;28;20486;-84
2023/06/12 00:23:38;;;;;;;11.90;4.90;;;18.30;92.90;;;18.92;82.34;97992.22;5026915;28;20472;-83
2023/06/12 00:26:08;;;;;;;6.13;4.27;;;18.20;92.90;;;18.87;82.70;97994.81;5026594;28;20470;-83
2023/06/12 00:28:38;;;;;;;7.73;4.70;;;18.20;93.00;;;18.82;82.60;97992.88;5027253;28;20512;-83
2023/06/12 00:31:07;;;;;;;6.30;4.57;;;18.10;93.00;;;18.77;82.59;97992.00;5028361;28;20470;-83
2023/06/12 00:33:38;;;;;;;6.23;4.87;;;18.10;92.90;;;18.75;83.05;97991.41;5025621;28;21027;-83
2023/06/12 00:36:07;;;;;;;5.30;3.87;;;18.10;93.10;;;18.71;82.75;97992.97;5023875;28;20513;-84
2023/06/12 00:38:36;;;;;;;6.87;4.37;;;18.00;93.00;;;18.60;83.54;97992.78;4993277;28;20466;-83
2023/06/12 00:41:05;;;;;;;8.20;4.60;;;18.00;93.00;;;18.54;83.73;97985.78;5025562;28;20466;-84
2023/06/12 00:43:33;;;;;;;8.70;4.50;;;17.90;93.00;;;18.52;83.89;97995.84;5021909;28;20509;-84
2023/06/12 00:46:02;;;;;;;5.70;4.23;;;17.90;93.20;;;18.52;84.00;97992.38;5021566;28;20999;-83
2023/06/12 00:48:32;;;;;;;8.07;4.77;;;17.80;93.20;;;18.50;83.85;97992.59;5023667;28;20469;-83
2023/06/12 00:51:03;;;;;;;5.77;3.80;;;17.80;93.20;;;18.45;84.04;97995.16;5025325;28;20476;-84
2023/06/12 00:53:33;;;;;;;9.90;4.73;;;17.70;93.30;;;18.43;84.30;97991.91;5025891;28;20457;-83
2023/06/12 00:56:02;;;;;;;6.80;4.63;;;17.70;93.30;;;18.38;84.46;97991.84;5024079;28;20506;-84
2023/06/12 00:58:31;;;;;;;6.60;4.60;;;17.70;93.30;;;18.31;84.83;97983.25;5023983;28;20458;-84
2023/06/12 01:01:01;;;;;;;7.13;4.83;;;17.60;93.30;;;18.25;84.96;97986.03;5023104;28;20481;-83
2023/06/12 01:03:32;;;;;;;6.77;4.37;;;17.60;93.30;;;18.21;85.20;97975.13;5022784;28;20470;-83
2023/06/12 01:06:13;;;;;;;7.57;5.10;;;17.50;93.40;;;18.18;85.60;97978.25;5023822;28;20493;-83
2023/06/12 01:09:00;;;;;;;9.30;4.30;;;17.50;93.60;;;18.15;85.45;97984.00;5022406;28;20462;-84
2023/06/12 01:11:29;;;;;;;7.40;4.60;;;17.40;93.40;;;18.09;85.50;97977.00;5022801;28;20493;-83
2023/06/12 01:13:58;;;;;;;9.07;4.77;;;17.40;93.50;;;18.05;85.65;97968.72;5021979;28;20836;-84
2023/06/12 01:16:28;;;;;;;7.17;4.60;;;17.30;93.40;;;18.03;85.50;97975.31;5021040;28;20494;-83
2023/06/12 01:19:00;;;;;;;8.43;4.27;;;17.30;93.50;;;18.02;86.00;97976.34;5023177;28;21392;-83
2023/06/12 01:21:33;;;;;;;7.43;4.30;;;17.30;93.60;;;17.99;85.71;97974.97;5022039;28;20501;-83
2023/06/12 01:24:30;;;;;;;8.97;4.40;;;17.20;93.60;;;17.94;85.55;97974.91;5024728;28;20516;-83
2023/06/12 01:27:33;;;;;;;6.97;4.07;;;17.20;93.60;;;17.91;85.99;97977.19;5024657;28;20594;-83
2023/06/12 01:30:37;;;;;;;5.43;4.07;;;17.10;93.60;;;17.91;86.32;97980.63;5024754;28;20462;-83
2023/06/12 01:33:17;;;;;;;7.03;4.00;;;17.10;94.00;;;17.91;85.79;97985.91;5008271;28;20533;-83
2023/06/12 01:35:50;;;;;;;4.60;3.83;;;17.10;93.70;;;17.81;85.27;97983.06;5024050;28;20545;-83
2023/06/12 01:38:24;;;;;;;6.20;4.30;;;17.10;93.40;;;17.76;86.39;97984.84;5021568;28;20952;-83
2023/06/12 01:40:54;;;;;;;5.10;3.87;;;17.00;93.60;;;17.70;86.55;97985.78;5021476;28;21002;-83
2023/06/12 01:43:23;;;;;;;6.70;4.37;;;17.00;93.60;;;17.67;86.44;97991.53;5021126;28;20894;-83
2023/06/12 01:45:53;;;;;;;8.23;4.63;;;17.00;93.70;;;17.65;86.56;97993.59;5026240;28;20849;-83
2023/06/12 01:48:24;;;;;;;7.03;4.30;;;16.90;93.70;;;17.53;87.27;97989.09;5026161;28;20470;-84
2023/06/12 01:50:53;;;;;;;10.47;4.10;;;16.90;93.70;;;17.48;87.70;97983.72;5024696;28;20968;-83
2023/06/12 01:53:23;;;;;;;6.83;3.80;;;16.80;93.90;;;17.44;87.69;97990.50;5026160;28;20462;-83
2023/06/12 01:55:53;;;;;;;6.00;4.47;;;16.80;93.80;;;17.42;87.87;97984.63;5025293;28;20506;-83
2023/06/12 01:58:22;;;;;;;6.07;4.30;;;16.70;93.80;;;17.37;88.37;97987.16;5025788;28;20498;-83
2023/06/12 02:00:53;;;;;;;6.93;4.77;;;16.70;94.20;;;17.29;88.60;97982.22;5026540;28;20527;-84
2023/06/12 02:03:24;;;;;;;11.83;4.70;;;16.70;93.90;;;17.26;88.96;97982.69;5026094;28;20461;-84
2023/06/12 02:05:54;;;;;;;7.07;4.40;;;16.60;93.90;;;17.23;89.40;97984.97;5026669;28;21095;-83
2023/06/12 02:08:23;;;;;;;5.10;3.80;;;16.60;94.00;;;17.23;89.11;97980.50;5026705;28;20968;-83
2023/06/12 02:10:52;;;;;;;11.70;4.50;;;16.50;94.20;;;17.20;89.03;97988.91;5026665;28;20477;-84
2023/06/12 02:13:21;;;;;;;7.90;4.67;;;16.50;94.10;;;17.15;89.61;97985.34;5028441;28;20468;-84
2023/06/12 02:15:51;;;;;;;6.17;4.23;;;16.50;94.20;;;17.09;90.09;97995.00;5028225;28;20551;-84
2023/06/12 02:18:21;;;;;;;6.60;3.83;;;16.40;94.20;;;17.00;90.88;97991.91;5026007;28;20493;-83
2023/06/12 02:20:51;;;;;;;7.50;4.13;;;16.40;94.20;;;16.95;91.01;97994.41;5028001;28;20466;-83
2023/06/12 02:23:20;;;;;;;4.60;3.50;;;16.40;94.30;;;16.93;91.12;97999.13;5028241;28;21067;-84
2023/06/12 02:25:51;;;;;;;8.80;4.37;;;16.30;94.30;;;16.91;91.42;98003.81;5028093;28;20497;-83
2023/06/12 02:28:20;;;;;;;8.47;4.10;;;16.20;94.40;;;16.86;91.96;97994.97;5027266;28;20458;-83
2023/06/12 02:30:48;;;;;;;8.03;3.80;;;16.20;94.50;;;16.84;92.03;97997.03;5027351;28;21016;-83
2023/06/12 02:33:17;;;;;;;4.80;3.73;;;16.20;94.50;;;16.82;92.12;97997.28;5027989;28;20887;-84
2023/06/12 02:35:48;;;;;;;7.30;4.03;;;16.20;94.60;;;16.78;92.52;98004.03;5027667;28;20494;-84
2023/06/12 02:38:18;;;;;;;13.10;4.00;;;16.10;94.60;;;16.73;92.65;97998.63;5028693;28;20472;-83
2023/06/12 02:40:47;;;;;;;5.03;4.03;;;16.10;94.60;;;16.72;93.30;98004.16;5027682;28;20565;-84
2023/06/12 02:43:15;;;;;;;11.70;4.50;;;16.00;94.80;;;16.71;92.75;98002.53;5027837;28;20465;-83
2023/06/12 02:45:45;;;;;;;5.90;3.97;;;16.00;94.80;;;16.72;92.86;98004.94;5024974;28;20477;-83
2023/06/12 02:48:13;;;;;;;5.90;4.07;;;16.00;94.90;;;16.71;92.77;98002.53;5025138;28;20500;-83
2023/06/12 02:50:43;;;;;;;8.30;4.53;;;16.00;94.80;;;16.64;92.65;98002.63;5023600;28;20519;-83
2023/06/12 02:53:12;;;;;;;6.40;4.43;;;16.00;94.70;;;16.58;93.93;97999.06;5022531;28;20488;-83
2023/06/12 02:55:44;;;;;;;7.60;4.17;;;16.00;94.80;;;16.55;94.04;98014.53;5026550;28;20464;-84
2023/06/12 02:58:12;;;;;;;6.23;4.00;;;15.90;94.90;;;16.51;94.68;98011.53;5024810;28;20501;-84
2023/06/12 03:00:41;;;;;;;6.53;4.50;;;15.90;94.90;;;16.45;95.07;98003.72;5024913;28;20466;-84
2023/06/12 03:03:12;;;;;;;11.20;3.90;;;15.80;95.00;;;16.42;95.28;98010.22;5006553;28;20466;-84
2023/06/12 03:05:43;;;;;;;6.13;4.67;;;15.80;95.10;;;16.42;95.26;98010.22;5026576;28;21067;-84
2023/06/12 03:08:13;;;;;;;6.47;4.00;;;15.80;95.10;;;16.42;95.10;98009.41;5024515;28;20471;-84
2023/06/12 03:10:44;;;;;;;5.87;4.27;;;15.80;95.10;;;16.43;95.25;98017.13;5025154;28;20504;-83
2023/06/12 03:13:13;;;;;;;6.97;4.37;;;15.70;95.20;;;16.43;95.07;98014.47;5025329;28;21514;-83
2023/06/12 03:15:42;;;;;;;6.47;4.10;;;15.70;95.60;;;16.43;95.08;98016.31;5025656;28;20465;-83
2023/06/12 03:18:11;;;;;;;6.87;4.53;;;15.70;95.20;;;16.38;95.42;98026.75;5024307;28;20466;-84
2023/06/12 03:20:40;;;;;;;8.07;4.73;;;15.70;95.20;;;16.34;95.80;98026.41;5024050;28;20466;-84
2023/06/12 03:23:09;;;;;;;5.07;3.97;;;15.60;95.30;;;16.34;95.60;98036.13;5023529;28;20973;-84
2023/06/12 03:25:39;;;;;;;5.27;3.90;;;15.60;95.20;;;16.29;95.86;98038.63;5027039;28;20462;-84
2023/06/12 03:28:09;;;;;;;5.20;4.10;;;15.60;95.20;;;16.25;96.61;98032.19;5026205;28;20837;-84
2023/06/12 03:30:38;;;;;;;5.93;3.77;;;15.60;95.30;;;16.20;97.01;98043.44;5022207;28;20565;-84
2023/06/12 03:33:09;;;;;;;9.70;4.63;;;15.50;95.40;;;16.19;97.49;98035.72;5024292;28;21202;-84
2023/06/12 03:35:38;;;;;;;6.33;4.03;;;15.50;95.50;;;16.13;97.66;98040.06;5024022;28;21227;-84
2023/06/12 03:38:08;;;;;;;6.27;4.50;;;15.50;95.50;;;16.10;98.16;98043.16;5025164;28;20502;-84
2023/06/12 03:40:36;;;;;;;7.70;5.50;;;15.40;95.50;;;16.09;98.28;98050.25;5021604;28;20833;-84
2023/06/12 03:43:05;;;;;;;6.07;4.70;;;15.40;95.60;;;16.09;98.63;98041.53;5022401;28;20969;-84
2023/06/12 03:45:36;;;;;;;6.20;4.20;;;15.40;95.80;;;16.05;98.34;98043.00;5024407;28;20462;-84
2023/06/12 03:48:06;;;;;;;6.70;4.20;;;15.40;95.70;;;16.04;98.84;98038.75;5023822;28;20473;-84
2023/06/12 03:50:35;;;;;;;7.20;5.13;;;15.30;95.70;;;16.05;99.17;98035.91;5024145;28;20826;-84
2023/06/12 03:53:04;;;;;;;8.53;4.83;;;15.30;95.90;;;16.03;98.89;98042.44;5024059;28;20470;-84
2023/06/12 03:55:34;;;;;;;8.27;4.83;;;15.40;95.80;;;16.03;99.39;98043.25;5023103;28;20519;-84
2023/06/12 03:58:03;;;;;;;5.80;4.20;;;15.40;96.00;;;16.01;99.32;98034.72;5020925;28;20505;-83
2023/06/12 04:00:33;;;;;;;10.77;4.70;;;15.30;95.90;;;15.99;99.60;98041.25;5023625;28;20488;-84
2023/06/12 04:03:03;;;;;;;15.03;3.90;;;15.30;95.90;;;15.97;100.00;98044.09;5023862;28;20462;-84
2023/06/12 04:05:33;;;;;;;5.80;4.30;;;15.30;96.10;;;15.95;100.00;98053.28;5023203;28;20477;-84
2023/06/12 04:08:01;;;;;;;7.77;4.30;;;15.30;96.00;;;15.95;100.00;98053.28;5025320;28;20825;-84
2023/06/12 04:10:33;;;;;;;7.30;4.77;;;15.20;96.10;;;16.02;100.00;98049.53;5023501;28;21012;-84
2023/06/12 04:13:03;;;;;;;5.67;4.70;;;15.20;96.40;;;16.04;100.00;98049.28;5023304;28;20516;-84
2023/06/12 04:15:32;;;;;;;5.87;4.07;;;15.20;96.30;;;16.06;100.00;98044.63;5026246;28;20485;-84
2023/06/12 04:18:02;;;;;;;7.27;4.33;;;15.30;96.30;;;16.06;100.00;98052.53;5027369;28;20517;-83
2023/06/12 04:20:32;;;;;;;8.23;4.40;;;15.30;96.30;;;16.04;100.00;98059.84;5024845;28;20471;-84
2023/06/12 04:23:11;;;;;;;7.10;4.60;;;15.30;96.40;;;16.04;100.00;98044.03;5023258;28;20484;-84
2023/06/12 04:25:43;;;;;;;8.40;4.40;;;15.30;96.40;;;16.07;100.00;98054.13;5024871;28;20524;-84
2023/06/12 04:28:13;;;;;;;8.80;4.50;;;15.30;96.40;;;16.11;100.00;98052.66;5023758;28;20474;-83
2023/06/12 04:30:44;;;;;;;6.47;4.60;;;15.30;96.40;;;16.14;100.00;98049.56;5022370;28;20516;-84
2023/06/12 04:33:14;;;;;;;56.47;29.30;;;15.30;96.40;;;16.15;100.00;98051.19;5023560;28;20465;-83
2023/06/12 04:35:46;;;;;;;6.40;4.73;;;15.40;96.40;;;16.18;100.00;98050.75;5022034;28;20482;-83
2023/06/12 04:38:15;;;;;;;6.60;5.03;;;15.40;96.50;;;16.24;100.00;98052.53;5024325;28;21031;-83
2023/06/12 04:40:45;;;;;;;8.03;4.10;;;15.40;96.50;;;16.28;100.00;98045.75;5025879;28;20489;-82
2023/06/12 04:43:19;;;;;;;7.50;4.17;;;15.50;96.50;;;16.32;100.00;98046.91;5026719;28;20461;-83
2023/06/12 04:45:47;;;;;;;6.70;4.87;;;15.50;96.50;;;16.40;100.00;98048.44;5008051;28;20466;-82
2023/06/12 04:48:19;;;;;;;5.73;4.90;;;15.50;96.60;;;16.45;100.00;98051.22;5024400;28;20462;-83
2023/06/12 04:50:49;;;;;;;6.37;4.80;;;15.60;96.60;;;16.49;100.00;98047.88;5025839;28;20541;-82
2023/06/12 04:53:19;;;;;;;5.63;4.47;;;15.60;96.60;;;16.54;100.00;98044.59;5025143;28;20438;-82
2023/06/12 04:55:52;;;;;;;6.60;4.30;;;15.70;96.60;;;16.57;100.00;98046.81;5021847;28;20461;-82
2023/06/12 04:58:22;;;;;;;7.47;4.83;;;15.70;96.60;;;16.56;100.00;98048.63;5024788;28;20486;-83
2023/06/12 05:00:55;;;;;;;9.23;5.03;;;15.80;96.70;;;16.54;100.00;98042.75;5023987;28;20462;-83
2023/06/12 05:03:28;;;;;;;10.27;4.43;;;15.80;96.80;;;16.57;100.00;98044.97;5019126;28;21108;-84
2023/06/12 05:05:57;;;;;;;6.30;4.20;;;15.80;97.00;;;16.61;100.00;98047.97;5021581;28;20470;-80
2023/06/12 05:08:26;;;;;;;12.67;5.00;;;15.80;97.00;;;16.63;100.00;98045.91;5021136;28;20473;-83
2023/06/12 05:10:55;;;;;;;6.80;4.60;;;15.90;97.10;;;16.69;100.00;98046.84;5021955;28;20474;-83
2023/06/12 05:13:24;;;;;;;8.30;4.53;;;15.90;97.20;;;16.73;100.00;98046.16;5022209;28;20592;-83
2023/06/12 05:15:52;;;;;;;11.60;5.00;;;15.90;97.10;;;16.78;100.00;98045.47;5023006;28;20478;-83
2023/06/12 05:18:22;;;;;;;10.30;4.57;;;16.00;97.20;;;16.82;100.00;98051.94;5023811;28;20498;-83
2023/06/12 05:20:51;;;;;;;5.63;4.30;;;16.00;97.30;;;16.87;100.00;98046.78;5020962;28;20470;-79
2023/06/12 05:23:20;;;;;;;19.13;10.47;;;16.10;97.40;;;16.92;100.00;98044.25;5022148;28;20473;-83
2023/06/12 05:25:49;;;;;;;8.57;6.03;;;16.10;97.30;;;16.97;100.00;98041.75;5023779;28;20469;-83
2023/06/12 05:28:18;;;;;;;11.00;4.87;;;16.20;97.40;;;17.02;100.00;98041.84;5021654;28;21302;-83
2023/06/12 05:30:48;;;;;;;7.07;4.60;;;16.20;97.30;;;17.08;100.00;98046.22;5021589;28;20475;-82
2023/06/12 05:33:17;;;;;;;7.40;5.27;;;16.20;97.10;;;17.14;100.00;98045.31;5020572;28;20466;-83
2023/06/12 05:35:47;;;;;;;9.17;4.73;;;16.30;97.10;;;17.21;100.00;98040.75;5021745;28;20489;-82
2023/06/12 05:38:26;;;;;;;6.37;4.60;;;16.30;97.50;;;17.26;100.00;98038.19;5023059;28;20494;-82
2023/06/12 05:41:03;;;;;;;11.17;4.60;;;16.40;97.40;;;17.33;100.00;98046.81;5022518;28;20458;-82
2023/06/12 05:46:18;;;;;;;8.50;4.90;;;16.50;97.00;;;17.45;99.83;98044.19;4990679;28;20878;-82
2023/06/12 05:48:57;;;;;;;8.50;4.43;;;16.60;96.90;;;17.49;100.00;98040.81;5022660;28;20922;-82
2023/06/12 05:51:27;;;;;;;7.30;4.80;;;16.60;97.20;;;17.55;100.00;98050.50;5021272;28;20461;-82
2023/06/12 05:53:57;;;;;;;6.30;4.20;;;16.70;97.60;;;17.60;100.00;98040.03;5024551;28;20548;-82
2023/06/12 05:56:30;;;;;;;6.53;4.63;;;16.70;97.00;;;17.67;100.00;98042.56;5025637;28;20477;-82
2023/06/12 05:59:00;;;;;;;8.73;4.87;;;16.80;97.10;;;17.73;100.00;98041.66;5025044;28;20497;-82
2023/06/12 06:01:31;;;;;;;6.30;4.50;;;16.80;97.10;;;17.77;100.00;98040.13;5023988;28;20474;-82
2023/06/12 06:04:00;;;;;;;8.90;5.00;;;16.90;97.30;;;17.82;100.00;98044.72;5023571;28;20477;-83
2023/06/12 06:06:30;;;;;;;7.07;4.60;;;16.90;97.10;;;17.89;99.82;98053.34;5022940;28;20457;-82
2023/06/12 06:09:00;;;;;;;6.97;5.13;;;17.00;97.20;;;17.94;100.00;98048.19;5007115;28;20540;-83
2023/06/12 06:11:30;;;;;;;5.67;4.10;;;17.10;97.20;;;17.99;99.96;98049.06;5023370;28;20469;-82
2023/06/12 06:13:58;;;;;;;7.80;4.73;;;17.10;97.20;;;18.04;100.00;98046.53;5023168;28;20984;-82
2023/06/12 06:16:28;;;;;;;13.07;5.63;;;17.20;97.20;;;18.10;100.00;98052.72;5023041;28;20458;-83
2023/06/12 06:19:17;;;;;;;9.20;5.33;;;17.20;97.60;;;18.16;100.00;98054.44;5022123;28;20481;-83
2023/06/12 06:21:47;;;;;;;6.40;5.43;;;17.30;97.20;;;18.21;99.72;98046.59;5022795;28;20505;-83
2023/06/12 06:24:16;;;;;;;10.80;4.97;;;17.40;97.10;;;18.27;99.29;98040.34;5020080;28;20458;-83
2023/06/12 06:26:45;;;;;;;30.87;16.87;;;17.40;97.00;;;18.33;98.54;98042.03;5021281;28;20790;-83
2023/06/12 06:29:14;;;;;;;11.80;6.90;;;17.50;96.90;;;18.39;98.57;98043.78;5022299;28;20469;-84
2023/06/12 06:31:44;;;;;;;6.93;4.60;;;17.50;97.00;;;18.47;98.42;98050.50;5023222;28;20466;-83
2023/06/12 06:34:13;;;;;;;6.50;4.73;;;17.60;97.20;;;18.53;98.18;98053.03;5027178;28;20539;-83
2023/06/12 06:36:42;;;;;;;8.47;5.67;;;17.70;97.00;;;18.60;98.03;98050.28;5026597;28;20512;-83
2023/06/12 06:39:12;;;;;;;10.50;5.00;;;17.70;97.00;;;18.68;98.17;98054.34;5028930;28;20887;-83
2023/06/12 06:41:42;;;;;;;6.00;4.93;;;17.80;97.10;;;18.75;98.14;98055.81;5027683;28;20477;-83
2023/06/12 06:44:10;;;;;;;12.60;5.07;;;17.80;97.10;;;18.82;98.19;98053.00;5025576;28;20470;-85
2023/06/12 06:46:39;;;;;;;6.60;5.00;;;17.90;97.30;;;18.89;97.94;98049.16;5024525;28;20504;-85
2023/06/12 06:49:08;;;;;;;1937.37;785.40;;;18.00;97.10;;;18.96;97.20;98049.00;5023285;28;20496;-79
2023/06/12 06:51:36;;;;;;;125.97;78.47;;;18.10;96.80;;;19.03;97.40;98054.97;5026941;28;20483;-83
2023/06/12 06:54:06;;;;;;;19.53;13.63;;;18.10;96.90;;;19.08;96.69;98047.09;5024797;28;20991;-84
2023/06/12 06:56:36;;;;;;;24.43;17.63;;;18.20;96.70;;;19.15;96.87;98050.41;5025232;28;20465;-80
2023/06/12 06:59:06;;;;;;;29.70;17.20;;;18.30;96.90;;;19.23;96.76;98049.97;5025469;28;20525;-82
2023/06/12 07:01:34;;;;;;;9.30;6.43;;;18.40;96.80;;;19.30;95.75;98040.00;5024535;28;20457;-83
2023/06/12 07:04:03;;;;;;;8.40;4.80;;;18.50;96.50;;;19.37;94.13;98051.25;5024529;28;20472;-82
2023/06/12 07:06:33;;;;;;;8.07;5.00;;;18.50;96.30;;;19.43;92.73;98045.03;5027583;28;21122;-82
2023/06/12 07:09:03;;;;;;;13.60;4.77;;;18.60;96.10;;;19.54;90.66;98051.28;5028993;28;20863;-82
2023/06/12 07:11:31;;;;;;;7.27;5.27;;;18.70;95.50;;;19.63;89.98;98039.19;5027317;28;20462;-82
2023/06/12 07:14:00;;;;;;;12.97;4.30;;;18.70;95.40;;;19.72;89.93;98043.00;5028610;28;20462;-82
2023/06/12 07:16:31;;;;;;;6.10;4.37;;;18.90;95.60;;;19.83;87.67;98034.13;5028211;28;20469;-82
2023/06/12 07:19:01;;;;;;;5.87;4.53;;;19.00;94.70;;;19.91;87.40;98041.69;5028592;28;20612;-82
2023/06/12 07:21:29;;;;;;;4.67;4.17;;;19.10;95.10;;;19.97;87.86;98038.03;5027528;28;20469;-82
2023/06/12 07:23:59;;;;;;;10.07;4.10;;;19.10;95.20;;;20.02;88.10;98037.31;5027769;28;20466;-82
2023/06/12 07:26:28;;;;;;;8.73;4.73;;;19.20;95.20;;;20.10;86.58;98044.81;5027659;28;20895;-82
2023/06/12 07:28:58;;;;;;;19.80;4.70;;;19.20;94.60;;;20.17;86.52;98045.44;5026802;28;20552;-82
2023/06/12 07:31:30;;;;;;;6.07;3.80;;;19.30;94.90;;;20.25;85.37;98042.34;5027183;28;21191;-82
2023/06/12 07:33:58;;;;;;;7.13;4.53;;;19.50;94.60;;;20.35;82.82;98042.47;5026640;28;21000;-82
2023/06/12 07:36:28;;;;;;;8.37;4.37;;;19.60;93.70;;;20.45;82.38;98039.94;5028387;28;20458;-82
2023/06/12 07:38:56;;;;;;;7.90;4.43;;;19.60;93.90;;;20.53;81.53;98033.38;5027347;28;21008;-82
2023/06/12 07:41:26;;;;;;;5.77;4.30;;;19.70;93.80;;;20.58;81.04;98036.88;5027707;28;20547;-82
2023/06/12 07:43:55;;;;;;;6.10;4.60;;;19.80;93.70;;;20.69;79.11;98031.69;5026399;28;20463;-82
2023/06/12 07:46:23;;;;;;;4.97;4.20;;;19.90;93.10;;;20.77;79.32;98028.53;5028071;28;20466;-82
2023/06/12 07:48:53;;;;;;;6.97;4.80;;;20.00;93.10;;;20.85;78.93;98030.75;5028762;28;20465;-83
2023/06/12 07:51:22;;;;;;;7.07;5.00;;;20.00;93.30;;;20.94;78.98;98029.22;5027607;28;20489;-82
2023/06/12 07:53:51;;;;;;;6.23;4.60;;;20.10;93.20;;;21.02;78.90;98021.59;5027620;28;20868;-82
2023/06/12 07:56:20;;;;;;;6.50;4.20;;;20.20;93.40;;;21.09;78.76;98032.81;5026943;28;20504;-82
2023/06/12 07:58:49;;;;;;;7.80;5.40;;;20.30;93.10;;;21.17;77.09;98025.44;5026212;28;20489;-81
2023/06/12 08:01:18;;;;;;;7.13;4.53;;;20.40;92.70;;;21.22;77.97;98026.28;5026815;28;20473;-82
2023/06/12 08:03:46;;;;;;;11.03;4.83;;;20.40;92.90;;;21.30;77.69;98022.34;5027889;28;20953;-82
2023/06/12 08:06:16;;;;;;;7.13;4.73;;;20.60;93.00;;;21.33;78.15;98027.16;5026622;28;20476;-80
2023/06/12 08:08:48;;;;;;;9.27;5.30;;;20.60;93.20;;;21.35;78.68;98012.53;5021285;28;20469;-83
2023/06/12 08:11:18;;;;;;;9.37;5.50;;;20.60;93.30;;;21.44;78.12;98012.84;5024284;28;20486;-80
2023/06/12 08:13:46;;;;;;;5.73;4.40;;;20.70;93.20;;;21.53;78.11;98013.97;5024671;28;20994;-80
2023/06/12 08:16:16;;;;;;;96.13;54.80;;;20.70;93.40;;;21.57;78.11;98012.38;5022485;28;20521;-81
2023/06/12 08:18:45;;;;;;;8.47;4.63;;;20.80;93.20;;;21.65;76.72;98017.22;5020605;28;21428;-81
2023/06/12 08:21:16;;;;;;;6.20;4.33;;;20.90;92.90;;;21.72;76.52;98007.16;5023231;28;20466;-81
2023/06/12 08:23:45;;;;;;;5.60;4.30;;;21.10;92.70;;;21.77;76.41;98001.03;5020448;28;20470;-81
2023/06/12 08:26:16;;;;;;;5.93;4.53;;;21.10;92.70;;;21.81;76.58;97997.59;5019077;28;20963;-81
2023/06/12 08:28:49;;;;;;;8.70;5.57;;;21.10;92.80;;;21.89;76.23;97993.63;5021871;28;20462;-79
2023/06/12 08:31:18;;;;;;;6.93;4.70;;;21.20;92.70;;;21.94;75.57;98001.66;5023528;28;20466;-79
2023/06/12 08:33:47;;;;;;;5.77;4.10;;;21.30;92.60;;;21.98;76.03;98000.88;5024553;28;20492;-81
2023/06/12 08:36:17;;;;;;;7.87;5.00;;;21.30;92.80;;;21.98;76.87;98000.09;5024806;28;20476;-81
2023/06/12 08:38:45;;;;;;;4.83;4.17;;;21.20;92.80;;;22.02;77.06;97993.19;5024296;28;20528;-80
2023/06/12 08:41:18;;;;;;;5.87;4.83;;;21.30;93.10;;;22.08;77.30;97992.13;5023921;28;20552;-80
2023/06/12 08:43:48;;;;;;;5.63;4.40;;;21.30;93.20;;;22.13;77.58;98000.16;5025909;28;20450;-81
2023/06/12 08:46:20;;;;;;;8.40;4.63;;;21.30;93.20;;;22.24;75.44;97988.47;5025065;28;20498;-80
2023/06/12 08:48:49;;;;;;;6.10;4.57;;;21.50;92.70;;;22.35;74.98;97991.94;5025023;28;20488;-80
2023/06/12 08:51:21;;;;;;;5.70;4.10;;;21.80;92.50;;;22.46;73.83;97985.53;5023265;28;20944;-80
2023/06/12 08:53:50;;;;;;;5.40;4.50;;;21.90;92.20;;;22.55;73.72;97990.09;5025219;28;20531;-82
2023/06/12 08:56:22;;;;;;;7.23;4.40;;;21.90;92.20;;;22.64;74.12;97989.56;5022806;28;20487;-81
2023/06/12 08:58:51;;;;;;;7.40;4.20;;;22.10;92.30;;;22.73;73.43;97993.34;5020572;28;20982;-81
2023/06/12 09:01:20;;;;;;;5.27;4.50;;;22.20;92.10;;;22.80;73.01;97981.34;5020384;28;20466;-81
2023/06/12 09:03:58;;;;;;;10.40;6.33;;;22.20;92.10;;;22.90;72.32;97985.88;5021701;28;20465;-80
2023/06/12 09:06:34;;;;;;;10.20;4.70;;;22.30;92.00;;;22.94;70.53;97985.06;5020123;28;20465;-81
2023/06/12 09:09:03;;;;;;;6.93;4.80;;;22.30;91.40;;;22.99;70.05;97982.41;5021233;28;20473;-79
2023/06/12 09:11:37;;;;;;;8.33;4.73;;;22.40;91.30;;;23.03;71.12;97982.66;5021903;28;20474;-80
2023/06/12 09:14:06;;;;;;;5.97;4.50;;;22.40;91.70;;;23.08;70.02;97985.34;5023919;28;20473;-81
2023/06/12 09:16:36;;;;;;;6.20;4.43;;;22.50;91.40;;;23.11;69.62;97981.31;5023729;28;20474;-80
2023/06/12 09:19:04;;;;;;;8.17;4.30;;;22.50;91.20;;;23.08;69.75;97980.00;5025434;28;20465;-80
2023/06/12 09:21:37;;;;;;;6.63;4.80;;;22.40;91.40;;;23.18;69.46;97985.31;5022044;28;20501;-81
2023/06/12 09:24:06;;;;;;;5.70;3.87;;;22.50;91.30;;;23.27;68.78;97981.03;5025156;28;20850;-81
2023/06/12 09:26:37;;;;;;;6.43;3.87;;;22.60;91.20;;;23.33;69.40;97982.59;5022695;28;20925;-80
2023/06/12 09:29:06;;;;;;;13.80;4.10;;;22.60;91.40;;;23.40;68.50;97976.97;5024903;28;20545;-79
2023/06/12 09:31:35;;;;;;;6.37;4.50;;;22.80;91.10;;;23.44;68.40;97983.41;5022644;28;20494;-79
2023/06/12 09:34:04;;;;;;;6.73;4.20;;;22.80;91.10;;;23.53;65.53;97985.25;5023968;28;20486;-80
2023/06/12 09:36:36;;;;;;;14.63;5.37;;;23.00;90.20;;;23.62;66.12;97990.03;5023912;28;20473;-80
2023/06/12 09:39:06;;;;;;;6.13;4.23;;;23.00;90.50;;;23.70;65.93;97992.16;5024131;28;20465;-80
2023/06/12 09:41:35;;;;;;;6.70;4.03;;;23.10;90.60;;;23.74;66.37;97987.88;5022545;28;21075;-80
2023/06/12 09:44:04;;;;;;;8.90;4.43;;;23.10;90.70;;;23.82;63.67;97995.31;5024208;28;20468;-81
2023/06/12 09:46:33;;;;;;;7.47;4.87;;;23.20;89.80;;;23.91;61.29;97993.69;5024309;28;20473;-81
2023/06/12 09:49:03;;;;;;;12.73;4.60;;;23.30;88.20;;;23.96;61.79;97996.31;5024510;28;20500;-81
2023/06/12 09:51:36;;;;;;;4.77;4.00;;;23.40;88.70;;;24.00;61.78;97992.03;5023136;28;20941;-80
2023/06/12 09:54:06;;;;;;;4.63;4.10;;;23.40;88.90;;;24.05;60.31;97997.38;5023100;28;20484;-80
2023/06/12 09:56:35;;;;;;;6.73;4.13;;;23.50;87.70;;;24.09;59.75;97992.28;5024038;28;20493;-80
2023/06/12 09:59:09;;;;;;;6.37;5.23;;;23.50;87.20;;;24.12;58.56;97987.19;5022895;28;20495;-81
2023/06/12 10:01:40;;;;;;;5.03;4.10;;;23.60;86.50;;;24.20;59.47;97986.59;5022651;28;20579;-81
2023/06/12 10:04:13;;;;;;;6.40;4.60;;;23.60;87.30;;;24.26;60.17;97990.06;5024802;28;20490;-81
2023/06/12 10:06:46;;;;;;;5.57;4.23;;;23.60;87.70;;;24.25;59.51;97978.56;5024366;28;20473;-81
2023/06/12 10:09:17;;;;;;;5.97;4.23;;;23.60;87.50;;;24.29;57.15;97984.97;5027237;28;21030;-80
2023/06/12 10:11:47;;;;;;;5.00;4.37;;;23.80;85.60;;;24.32;59.47;97988.97;5025187;28;20843;-80
2023/06/12 10:14:18;;;;;;;5.97;4.50;;;23.70;87.50;;;24.32;60.13;97979.06;5025717;28;20469;-80
2023/06/12 10:16:49;;;;;;;5.10;4.07;;;23.70;88.30;;;24.36;60.16;97977.44;5027580;28;20458;-80
2023/06/12 10:19:19;;;;;;;5.07;4.47;;;23.70;88.00;;;24.49;57.11;97984.84;5028254;28;20462;-80
2023/06/12 10:21:52;;;;;;;6.10;3.73;;;24.00;85.50;;;24.58;55.62;97989.56;5027556;28;21042;-80
2023/06/12 10:24:23;;;;;;;5.30;4.10;;;24.00;84.40;;;24.65;55.43;97987.38;5026929;28;21019;-80
2023/06/12 10:26:56;;;;;;;7.07;3.70;;;24.20;84.10;;;24.72;55.24;97977.16;5026577;28;20469;-80
2023/06/12 10:29:30;;;;;;;6.13;4.20;;;24.10;84.30;;;24.79;53.43;97978.44;5027035;28;21076;-80
2023/06/12 10:32:07;;;;;;;6.20;4.30;;;24.30;82.80;;;24.78;54.31;97970.72;5026334;28;20534;-80